createdAt,value
2023-04-17T00:00:59.999Z,27.40
2023-04-17T00:03:27.977Z,28.42
2023-04-17T00:05:56.816Z,27.70
2023-04-17T00:08:26.209Z,27.63
2023-04-17T00:11:06.502Z,27.73
2023-04-17T00:13:35.578Z,27.90
2023-04-17T00:16:03.846Z,27.50
2023-04-17T00:18:31.789Z,27.25
2023-04-17T00:20:59.650Z,27.85
2023-04-17T00:23:29.714Z,26.33
2023-04-17T00:25:57.638Z,28.40
2023-04-17T00:28:25.700Z,28.20
2023-04-17T00:30:53.647Z,28.42
2023-04-17T00:33:21.569Z,28.90
2023-04-17T00:35:49.498Z,27.20
2023-04-17T00:38:17.355Z,28.33
2023-04-17T00:40:46.802Z,29.63
2023-04-17T00:43:14.841Z,28.58
2023-04-17T00:45:43.162Z,27.13
2023-04-17T00:48:13.235Z,28.75
2023-04-17T00:50:41.773Z,27.40
2023-04-17T00:53:09.965Z,28.48
2023-04-17T00:55:40.646Z,28.38
2023-04-17T00:58:10.497Z,30.05
2023-04-17T01:00:38.803Z,27.50
2023-04-17T01:03:07.081Z,28.25
2023-04-17T01:05:38.325Z,27.20
2023-04-17T01:08:06.627Z,28.10
2023-04-17T01:10:34.629Z,28.98
2023-04-17T01:13:03.424Z,27.42
2023-04-17T01:15:33.894Z,29.77
2023-04-17T01:18:02.087Z,28.90
2023-04-17T01:20:31.094Z,28.67
2023-04-17T01:22:59.437Z,30.50
2023-04-17T01:25:29.765Z,29.27
2023-04-17T01:27:58.000Z,28.02
2023-04-17T01:30:27.177Z,29.25
2023-04-17T01:32:58.612Z,30.63
2023-04-17T01:35:26.544Z,29.92
2023-04-17T01:37:56.831Z,29.88
2023-04-17T01:40:24.786Z,28.83
2023-04-17T01:42:54.243Z,29.20
2023-04-17T01:45:22.399Z,28.17
2023-04-17T01:47:51.573Z,28.98
2023-04-17T01:50:19.660Z,29.95
2023-04-17T01:52:47.613Z,29.58
2023-04-17T01:55:15.483Z,30.63
2023-04-17T01:57:44.002Z,28.53
2023-04-17T02:00:14.772Z,28.93
2023-04-17T02:02:44.196Z,29.33
2023-04-17T02:05:12.221Z,29.73
2023-04-17T02:07:40.116Z,29.85
2023-04-17T02:10:09.232Z,29.13
2023-04-17T02:12:37.892Z,27.93
2023-04-17T02:15:06.799Z,29.10
2023-04-17T02:17:36.119Z,28.27
2023-04-17T02:20:07.024Z,29.08
2023-04-17T02:22:34.922Z,27.98
2023-04-17T02:25:02.956Z,27.70
2023-04-17T02:27:31.165Z,26.13
2023-04-17T02:29:59.187Z,27.45
2023-04-17T02:32:28.506Z,27.55
2023-04-17T02:34:57.775Z,27.05
2023-04-17T02:37:25.703Z,26.20
2023-04-17T02:39:55.514Z,28.75
2023-04-17T02:42:23.448Z,27.10
2023-04-17T02:44:51.349Z,27.13
2023-04-17T02:47:19.540Z,27.57
2023-04-17T02:49:47.483Z,27.10
2023-04-17T02:52:16.722Z,27.48
2023-04-17T02:54:44.580Z,27.20
2023-04-17T02:57:13.417Z,26.83
2023-04-17T02:59:41.339Z,27.17
2023-04-17T03:02:09.422Z,28.33
2023-04-17T03:04:38.930Z,27.35
2023-04-17T03:07:09.220Z,27.15
2023-04-17T03:09:38.859Z,27.07
2023-04-17T03:12:07.165Z,27.97
2023-04-17T03:14:35.043Z,27.17
2023-04-17T03:17:02.945Z,28.53
2023-04-17T03:19:30.931Z,26.67
2023-04-17T03:21:58.841Z,27.10
2023-04-17T03:24:26.737Z,28.10
2023-04-17T03:26:56.135Z,27.53
2023-04-17T03:29:24.345Z,26.83
2023-04-17T03:31:52.556Z,27.50
2023-04-17T03:34:21.651Z,27.23
2023-04-17T03:36:50.798Z,25.25
2023-04-17T03:39:18.766Z,27.07
2023-04-17T03:41:47.077Z,26.20
2023-04-17T03:44:17.325Z,26.52
2023-04-17T03:46:46.061Z,28.57
2023-04-17T03:49:14.316Z,28.40
2023-04-17T03:51:43.493Z,28.60
2023-04-17T03:54:17.069Z,27.87
2023-04-17T03:56:47.135Z,28.20
2023-04-17T03:59:16.516Z,26.52
2023-04-17T04:01:46.872Z,26.98
2023-04-17T04:04:19.693Z,28.07
2023-04-17T04:06:49.433Z,27.25
2023-04-17T04:09:20.445Z,28.27
2023-04-17T04:11:48.272Z,28.50
2023-04-17T04:14:17.736Z,29.00
2023-04-17T04:16:48.436Z,28.30
2023-04-17T04:19:16.300Z,26.58
2023-04-17T04:21:45.383Z,28.50
2023-04-17T04:24:15.172Z,28.15
2023-04-17T04:26:44.028Z,30.17
2023-04-17T04:29:13.862Z,29.25
2023-04-17T04:31:57.464Z,30.13
2023-04-17T04:34:30.914Z,29.80
2023-04-17T04:36:58.771Z,29.13
2023-04-17T04:39:47.545Z,29.17
2023-04-17T04:42:22.138Z,29.70
2023-04-17T04:44:58.082Z,29.80
2023-04-17T04:47:30.911Z,30.70
2023-04-17T04:49:58.911Z,30.15
2023-04-17T04:52:27.993Z,30.60
2023-04-17T04:54:59.691Z,28.93
2023-04-17T04:57:27.687Z,30.97
2023-04-17T04:59:59.676Z,29.23
2023-04-17T05:02:35.108Z,29.38
2023-04-17T05:05:04.424Z,30.02
2023-04-17T05:07:34.841Z,32.53
2023-04-17T05:10:04.708Z,31.47
2023-04-17T05:12:36.212Z,31.63
2023-04-17T05:15:08.064Z,30.33
2023-04-17T05:17:37.810Z,30.80
2023-04-17T05:20:09.215Z,30.33
2023-04-17T05:22:45.323Z,29.33
2023-04-17T05:25:16.275Z,30.58
2023-04-17T05:27:44.352Z,29.65
2023-04-17T05:30:14.697Z,29.90
2023-04-17T05:32:46.665Z,30.27
2023-04-17T05:35:35.185Z,31.52
2023-04-17T05:38:04.013Z,29.30
2023-04-17T05:40:34.036Z,28.95
2023-04-17T05:43:07.700Z,29.85
2023-04-17T05:45:36.265Z,28.13
2023-04-17T05:48:05.662Z,28.88
2023-04-17T05:50:33.658Z,28.80
2023-04-17T05:53:02.150Z,28.90
2023-04-17T05:55:34.477Z,27.17
2023-04-17T05:58:16.867Z,28.38
2023-04-17T06:00:52.859Z,27.63
2023-04-17T06:03:23.097Z,26.70
2023-04-17T06:05:58.390Z,27.23
2023-04-17T06:08:28.095Z,26.60
2023-04-17T06:10:56.528Z,27.10
2023-04-17T06:13:24.441Z,26.23
2023-04-17T06:15:52.878Z,26.45
2023-04-17T06:18:22.168Z,26.80
2023-04-17T06:20:50.577Z,26.00
2023-04-17T06:23:18.482Z,25.73
2023-04-17T06:25:46.367Z,25.52
2023-04-17T06:28:14.335Z,25.98
2023-04-17T06:30:42.403Z,25.35
2023-04-17T06:33:10.498Z,24.88
2023-04-17T06:35:40.791Z,24.85
2023-04-17T06:38:28.965Z,23.80
2023-04-17T06:40:57.497Z,24.73
2023-04-17T06:43:25.493Z,23.55
2023-04-17T06:45:54.614Z,24.35
2023-04-17T06:48:22.587Z,24.58
2023-04-17T06:50:51.930Z,23.90
2023-04-17T06:53:20.134Z,23.33
2023-04-17T06:55:48.095Z,23.80
2023-04-17T06:58:16.029Z,23.15
2023-04-17T07:00:44.030Z,24.17
2023-04-17T07:03:13.933Z,22.77
2023-04-17T07:05:44.481Z,23.27
2023-04-17T07:08:15.957Z,24.02
2023-04-17T07:10:44.076Z,22.33
2023-04-17T07:13:12.171Z,23.38
2023-04-17T07:15:40.069Z,22.15
2023-04-17T07:18:08.074Z,24.35
2023-04-17T07:20:36.071Z,22.85
2023-04-17T07:23:04.003Z,23.40
2023-04-17T07:25:33.297Z,24.05
2023-04-17T07:28:02.122Z,22.40
2023-04-17T07:30:31.807Z,23.17
2023-04-17T07:32:59.964Z,24.15
2023-04-17T07:35:28.021Z,25.17
2023-04-17T07:37:59.056Z,23.90
2023-04-17T07:40:27.118Z,24.65
2023-04-17T07:42:56.881Z,23.50
2023-04-17T07:45:24.899Z,24.27
2023-04-17T07:47:53.149Z,23.75
2023-04-17T07:50:21.708Z,24.20
2023-04-17T07:52:49.725Z,23.40
2023-04-17T07:55:17.797Z,22.02
2023-04-17T07:57:46.973Z,22.02
2023-04-17T08:00:16.781Z,23.40
2023-04-17T08:02:44.926Z,22.83
2023-04-17T08:05:13.022Z,21.25
2023-04-17T08:07:41.200Z,22.05
2023-04-17T08:10:09.817Z,21.92
2023-04-17T08:12:37.825Z,22.85
2023-04-17T08:15:06.439Z,21.65
2023-04-17T08:17:35.810Z,21.92
2023-04-17T08:20:07.821Z,21.38
2023-04-17T08:22:40.168Z,20.85
2023-04-17T08:25:09.694Z,20.42
2023-04-17T08:27:37.838Z,20.48
2023-04-17T08:30:09.162Z,21.30
2023-04-17T08:32:40.944Z,19.98
2023-04-17T08:35:11.360Z,18.98
2023-04-17T08:37:39.635Z,18.80
2023-04-17T08:40:09.392Z,18.83
2023-04-17T08:42:38.679Z,17.70
2023-04-17T08:45:09.620Z,17.10
2023-04-17T08:47:38.100Z,15.95
2023-04-17T08:50:15.499Z,15.45
2023-04-17T08:52:44.610Z,14.57
2023-04-17T08:55:13.959Z,15.00
2023-04-17T08:57:58.630Z,16.13
2023-04-17T09:00:28.289Z,13.88
2023-04-17T09:02:57.688Z,15.00
2023-04-17T09:05:30.280Z,14.95
2023-04-17T09:08:09.997Z,14.25
2023-04-17T09:10:39.267Z,34.95
2023-04-17T09:13:08.497Z,19.08
2023-04-17T09:15:37.827Z,17.75
2023-04-17T09:18:05.846Z,20.15
2023-04-17T09:20:49.820Z,18.40
2023-04-17T09:23:17.760Z,17.08
2023-04-17T09:25:46.214Z,12.55
2023-04-17T09:28:16.085Z,12.18
2023-04-17T09:30:44.350Z,14.45
2023-04-17T09:33:13.008Z,20.65
2023-04-17T09:35:42.726Z,12.23
2023-04-17T09:38:11.783Z,11.27
2023-04-17T09:40:41.264Z,11.27
2023-04-17T09:43:10.991Z,11.23
2023-04-17T09:45:42.773Z,11.55
2023-04-17T09:48:14.442Z,10.32
2023-04-17T09:50:44.495Z,12.73
2023-04-17T09:53:13.876Z,10.02
2023-04-17T09:55:43.485Z,9.88
2023-04-17T09:58:12.293Z,9.35
2023-04-17T10:00:42.730Z,9.15
2023-04-17T10:03:11.400Z,8.82
2023-04-17T10:05:39.843Z,8.13
2023-04-17T10:08:09.261Z,8.30
2023-04-17T10:10:37.251Z,8.52
2023-04-17T10:13:09.225Z,8.68
2023-04-17T10:15:39.454Z,8.77
2023-04-17T10:18:28.305Z,8.68
2023-04-17T10:20:56.747Z,9.10
2023-04-17T10:23:31.435Z,9.20
2023-04-17T10:26:45.375Z,9.18
2023-04-17T10:29:13.717Z,8.65
2023-04-17T10:32:17.370Z,8.73
2023-04-17T10:34:45.342Z,10.68
2023-04-17T10:37:15.596Z,10.35
2023-04-17T10:40:01.792Z,9.43
2023-04-17T10:42:32.775Z,9.73
2023-04-17T10:45:05.922Z,8.65
2023-04-17T10:47:34.670Z,8.25
2023-04-17T10:50:04.554Z,8.02
2023-04-17T10:52:41.957Z,8.05
2023-04-17T10:55:14.486Z,7.22
2023-04-17T10:57:56.953Z,7.65
2023-04-17T11:00:36.835Z,7.72
2023-04-17T11:03:06.757Z,8.57
2023-04-17T11:05:36.591Z,8.93
2023-04-17T11:08:04.691Z,8.65
2023-04-17T11:10:36.514Z,8.27
2023-04-17T11:13:04.486Z,7.97
2023-04-17T11:15:34.173Z,8.80
2023-04-17T11:18:03.943Z,8.07
2023-04-17T11:20:34.053Z,8.27
2023-04-17T11:23:02.742Z,10.32
2023-04-17T11:25:33.589Z,9.73
2023-04-17T11:28:04.340Z,8.10
2023-04-17T11:30:34.136Z,9.13
2023-04-17T11:33:02.936Z,8.65
2023-04-17T11:35:33.522Z,9.02
2023-04-17T11:38:12.941Z,8.45
2023-04-17T11:40:45.566Z,8.40
2023-04-17T11:43:15.101Z,8.48
2023-04-17T11:45:44.264Z,8.57
2023-04-17T11:48:13.124Z,8.48
2023-04-17T11:50:42.648Z,8.88
2023-04-17T11:53:14.219Z,8.52
2023-04-17T11:55:42.136Z,9.43
2023-04-17T11:58:11.852Z,9.82
2023-04-17T12:00:42.979Z,8.95
2023-04-17T12:03:33.919Z,8.40
2023-04-17T12:06:02.491Z,7.88
2023-04-17T12:08:31.512Z,7.60
2023-04-17T12:10:59.607Z,8.05
2023-04-17T12:13:27.564Z,8.45
2023-04-17T12:15:56.973Z,8.43
2023-04-17T12:18:24.895Z,8.18
2023-04-17T12:20:52.732Z,8.63
2023-04-17T12:23:20.685Z,8.65
2023-04-17T12:25:48.628Z,8.15
2023-04-17T12:28:17.088Z,8.73
2023-04-17T12:30:44.982Z,9.30
2023-04-17T12:33:14.297Z,9.27
2023-04-17T12:35:42.142Z,8.20
2023-04-17T12:38:10.085Z,8.48
2023-04-17T12:40:39.136Z,8.77
2023-04-17T12:43:08.374Z,8.13
2023-04-17T12:45:37.176Z,8.63
2023-04-17T12:48:05.524Z,8.52
2023-04-17T12:50:40.517Z,8.40
2023-04-17T12:53:08.333Z,9.57
2023-04-17T12:55:38.569Z,8.45
2023-04-17T12:58:07.002Z,8.70
2023-04-17T13:00:35.351Z,8.45
2023-04-17T13:03:03.569Z,9.38
2023-04-17T13:05:32.144Z,8.85
2023-04-17T13:08:01.643Z,8.32
2023-04-17T13:10:29.878Z,8.85
2023-04-17T13:12:57.800Z,8.75
2023-04-17T13:15:26.303Z,8.73
2023-04-17T13:17:54.347Z,8.57
2023-04-17T13:20:22.425Z,9.00
2023-04-17T13:22:50.502Z,9.10
2023-04-17T13:25:19.937Z,9.38
2023-04-17T13:27:47.974Z,9.13
2023-04-17T13:30:16.183Z,9.15
2023-04-17T13:32:44.398Z,9.00
2023-04-17T13:35:13.447Z,7.95
2023-04-17T13:37:42.312Z,7.72
2023-04-17T13:40:11.833Z,7.90
2023-04-17T13:42:41.143Z,7.90
2023-04-17T13:45:09.828Z,7.95
2023-04-17T13:47:37.750Z,7.70
2023-04-17T13:50:07.146Z,7.93
2023-04-17T13:52:34.997Z,8.07
2023-04-17T13:55:02.859Z,8.52
2023-04-17T13:57:30.635Z,8.45
2023-04-17T13:59:59.802Z,8.50
2023-04-17T14:02:27.803Z,7.80
2023-04-17T14:04:55.973Z,7.63
2023-04-17T14:07:23.929Z,7.03
2023-04-17T14:09:51.959Z,7.38
2023-04-17T14:12:21.751Z,7.68
2023-04-17T14:14:49.640Z,7.97
2023-04-17T14:17:18.976Z,8.00
2023-04-17T14:19:47.087Z,8.57
2023-04-17T14:22:14.915Z,8.00
2023-04-17T14:24:43.211Z,8.30
2023-04-17T14:27:11.114Z,8.20
2023-04-17T14:29:39.037Z,8.68
2023-04-17T14:32:07.209Z,8.88
2023-04-17T14:34:36.438Z,8.23
2023-04-17T14:37:04.328Z,8.05
2023-04-17T14:39:32.910Z,8.68
2023-04-17T14:42:02.106Z,8.00
2023-04-17T14:44:30.305Z,8.32
2023-04-17T14:46:58.468Z,8.13
2023-04-17T14:49:26.399Z,8.00
2023-04-17T14:51:55.894Z,8.88
2023-04-17T14:54:23.768Z,7.65
2023-04-17T14:56:51.731Z,8.27
2023-04-17T14:59:19.751Z,8.75
2023-04-17T15:01:47.834Z,8.68
2023-04-17T15:04:16.424Z,8.48
2023-04-17T15:06:44.332Z,8.75
2023-04-17T15:09:13.736Z,7.35
2023-04-17T15:11:41.733Z,8.40
2023-04-17T15:14:09.604Z,8.30
2023-04-17T15:16:37.419Z,7.57
2023-04-17T15:19:05.319Z,8.30
2023-04-17T15:21:33.390Z,7.88
2023-04-17T15:24:01.193Z,8.25
2023-04-17T15:26:30.392Z,7.35
2023-04-17T15:28:58.151Z,7.47
2023-04-17T15:31:26.161Z,7.88
2023-04-17T15:33:54.001Z,7.25
2023-04-17T15:36:21.845Z,7.53
2023-04-17T15:38:49.786Z,7.63
2023-04-17T15:41:17.816Z,7.65
2023-04-17T15:43:47.073Z,10.10
2023-04-17T15:46:14.978Z,7.97
2023-04-17T15:48:42.827Z,7.78
2023-04-17T15:51:10.665Z,7.75
2023-04-17T15:53:38.431Z,6.90
2023-04-17T15:56:07.131Z,7.30
2023-04-17T15:58:35.857Z,8.00
2023-04-17T16:01:05.100Z,7.75
2023-04-17T16:03:33.133Z,7.18
2023-04-17T16:06:01.052Z,7.22
2023-04-17T16:08:28.848Z,7.93
2023-04-17T16:10:56.609Z,7.78
2023-04-17T16:13:24.440Z,7.90
2023-04-17T16:15:52.264Z,8.02
2023-04-17T16:18:21.650Z,8.20
2023-04-17T16:20:49.491Z,7.43
2023-04-17T16:23:17.933Z,7.75
2023-04-17T16:25:45.726Z,7.50
2023-04-17T16:28:13.496Z,8.05
2023-04-17T16:30:41.318Z,7.72
2023-04-17T16:33:09.265Z,8.00
2023-04-17T16:35:38.553Z,7.22
2023-04-17T16:38:06.406Z,7.40
2023-04-17T16:40:34.168Z,6.97
2023-04-17T16:43:02.012Z,6.85
2023-04-17T16:45:29.804Z,7.30
2023-04-17T16:47:57.742Z,7.30
2023-04-17T16:50:25.783Z,7.82
2023-04-17T16:52:55.039Z,8.25
2023-04-17T16:55:23.037Z,7.60
2023-04-17T16:57:50.837Z,8.25
2023-04-17T17:00:18.987Z,8.02
2023-04-17T17:02:46.921Z,8.45
2023-04-17T17:05:15.531Z,8.32
2023-04-17T17:07:43.447Z,10.60
2023-04-17T17:10:12.920Z,8.85
2023-04-17T17:12:40.801Z,8.73
2023-04-17T17:15:09.257Z,9.52
2023-04-17T17:17:37.887Z,9.20
2023-04-17T17:20:06.968Z,9.10
2023-04-17T17:22:34.752Z,9.35
2023-04-17T17:25:02.565Z,9.73
2023-04-17T17:27:31.702Z,9.43
2023-04-17T17:30:00.462Z,8.48
2023-04-17T17:32:28.768Z,9.25
2023-04-17T17:34:58.184Z,9.00
2023-04-17T17:37:27.426Z,8.63
2023-04-17T17:39:55.251Z,7.93
2023-04-17T17:42:23.083Z,8.50
2023-04-17T17:44:52.272Z,7.68
2023-04-17T17:47:20.061Z,9.07
2023-04-17T17:49:49.399Z,8.60
2023-04-17T17:52:17.266Z,8.25
2023-04-17T17:54:45.056Z,7.93
2023-04-17T17:57:12.890Z,8.70
2023-04-17T17:59:40.869Z,7.20
2023-04-17T18:02:10.342Z,8.15
2023-04-17T18:04:38.474Z,8.10
2023-04-17T18:07:08.136Z,7.25
2023-04-17T18:09:35.972Z,8.25
2023-04-17T18:12:03.961Z,7.88
2023-04-17T18:14:31.843Z,8.40
2023-04-17T18:16:59.686Z,8.68
2023-04-17T18:19:28.910Z,7.68
2023-04-17T18:21:56.752Z,8.20
2023-04-17T18:24:24.574Z,8.32
2023-04-17T18:26:52.472Z,7.00
2023-04-17T18:29:20.210Z,8.15
2023-04-17T18:31:48.131Z,7.90
2023-04-17T18:34:18.009Z,7.97
2023-04-17T18:36:47.206Z,7.75
2023-04-17T18:39:15.276Z,7.35
2023-04-17T18:41:43.067Z,8.50
2023-04-17T18:44:10.871Z,8.00
2023-04-17T18:46:38.768Z,7.20
2023-04-17T18:49:06.518Z,7.97
2023-04-17T18:51:34.269Z,8.27
2023-04-17T18:54:03.327Z,7.43
2023-04-17T18:56:31.086Z,8.30
2023-04-17T18:58:58.890Z,8.32
2023-04-17T19:01:26.643Z,7.57
2023-04-17T19:03:54.402Z,7.18
2023-04-17T19:06:22.274Z,7.22
2023-04-17T19:08:50.213Z,8.40
2023-04-17T19:11:19.585Z,7.47
2023-04-17T19:13:47.604Z,12.02
2023-04-17T19:16:15.451Z,9.27
2023-04-17T19:18:43.332Z,8.80
2023-04-17T19:21:11.221Z,8.30
2023-04-17T19:23:39.131Z,8.38
2023-04-17T19:26:07.031Z,7.85
2023-04-17T19:28:36.667Z,8.77
2023-04-17T19:31:04.626Z,8.48
2023-04-17T19:33:34.095Z,8.07
2023-04-17T19:36:03.398Z,8.20
2023-04-17T19:38:31.530Z,7.88
2023-04-17T19:41:14.427Z,8.68
2023-04-17T19:43:43.811Z,8.20
2023-04-17T19:46:11.881Z,8.85
2023-04-17T19:48:40.257Z,8.88
2023-04-17T19:51:08.165Z,8.88
2023-04-17T19:53:37.217Z,9.18
2023-04-17T19:56:08.300Z,9.18
2023-04-17T19:58:36.880Z,9.23
2023-04-17T20:01:06.494Z,9.13
2023-04-17T20:03:35.608Z,9.82
2023-04-17T20:06:03.649Z,9.65
2023-04-17T20:08:31.584Z,9.80
2023-04-17T20:10:59.479Z,9.50
2023-04-17T20:13:28.641Z,9.82
2023-04-17T20:15:56.618Z,9.27
2023-04-17T20:18:26.023Z,9.75
2023-04-17T20:20:53.871Z,9.27
2023-04-17T20:23:21.748Z,10.60
2023-04-17T20:25:50.442Z,9.45
2023-04-17T20:28:18.249Z,10.75
2023-04-17T20:30:46.117Z,10.48
2023-04-17T20:33:14.092Z,9.15
2023-04-17T20:35:43.394Z,9.43
2023-04-17T20:38:11.192Z,9.55
2023-04-17T20:40:39.350Z,10.20
2023-04-17T20:43:07.110Z,9.52
2023-04-17T20:45:34.904Z,9.25
2023-04-17T20:48:02.867Z,9.70
2023-04-17T20:50:30.702Z,10.10
2023-04-17T20:52:59.836Z,9.35
2023-04-17T20:55:27.780Z,9.40
2023-04-17T20:57:55.592Z,9.20
2023-04-17T21:00:23.460Z,9.90
2023-04-17T21:02:51.406Z,9.98
2023-04-17T21:05:19.840Z,9.20
2023-04-17T21:07:49.498Z,10.10
2023-04-17T21:10:20.885Z,9.02
2023-04-17T21:12:48.721Z,8.82
2023-04-17T21:15:16.644Z,9.43
2023-04-17T21:17:47.545Z,9.75
2023-04-17T21:20:15.530Z,9.07
2023-04-17T21:22:43.247Z,9.25
2023-04-17T21:25:11.298Z,9.80
2023-04-17T21:27:40.926Z,9.07
2023-04-17T21:30:19.594Z,8.68
2023-04-17T21:32:48.394Z,8.88
2023-04-17T21:35:16.241Z,8.88
2023-04-17T21:37:44.054Z,8.00
2023-04-17T21:40:12.805Z,8.55
2023-04-17T21:42:42.531Z,9.63
2023-04-17T21:45:11.941Z,8.57
2023-04-17T21:47:39.772Z,8.95
2023-04-17T21:50:09.440Z,7.43
2023-04-17T21:52:37.412Z,7.65
2023-04-17T21:55:07.668Z,7.43
2023-04-17T21:57:36.026Z,7.80
2023-04-17T22:00:06.288Z,7.90
2023-04-17T22:02:34.508Z,7.35
2023-04-17T22:05:02.309Z,7.33
2023-04-17T22:07:30.710Z,6.27
2023-04-17T22:10:01.677Z,6.60
2023-04-17T22:12:29.516Z,7.20
2023-04-17T22:14:57.269Z,7.20
2023-04-17T22:17:26.512Z,7.40
2023-04-17T22:19:55.787Z,7.43
2023-04-17T22:22:23.686Z,6.83
2023-04-17T22:24:51.526Z,7.10
2023-04-17T22:27:19.281Z,6.53
2023-04-17T22:29:47.072Z,6.47
2023-04-17T22:32:14.881Z,7.07
2023-04-17T22:34:48.448Z,6.60
2023-04-17T22:37:16.370Z,6.63
2023-04-17T22:39:44.149Z,7.53
2023-04-17T22:42:11.972Z,6.57
2023-04-17T22:44:39.816Z,7.50
2023-04-17T22:47:07.589Z,7.57
2023-04-17T22:49:38.024Z,6.87
2023-04-17T22:52:07.896Z,7.00
2023-04-17T22:54:35.765Z,6.70
2023-04-17T22:57:03.530Z,7.07
2023-04-17T22:59:31.298Z,7.00
2023-04-17T23:01:59.227Z,7.43
2023-04-17T23:04:27.097Z,7.60
2023-04-17T23:06:54.913Z,6.67
2023-04-17T23:09:24.038Z,7.87
2023-04-17T23:11:51.817Z,6.73
2023-04-17T23:14:19.594Z,7.20
2023-04-17T23:16:47.458Z,7.10
2023-04-17T23:19:15.256Z,6.77
2023-04-17T23:21:43.030Z,6.87
2023-04-17T23:24:11.640Z,7.20
2023-04-17T23:26:41.825Z,7.17
2023-04-17T23:29:09.661Z,7.20
2023-04-17T23:31:37.818Z,8.07
2023-04-17T23:34:05.714Z,8.50
2023-04-17T23:36:33.555Z,8.77
2023-04-17T23:39:01.305Z,8.93
2023-04-17T23:41:29.645Z,8.80
2023-04-17T23:43:58.770Z,8.40
2023-04-17T23:46:26.829Z,8.87
2023-04-17T23:48:54.641Z,8.50
2023-04-17T23:51:22.404Z,9.37
2023-04-17T23:53:50.648Z,9.07
2023-04-17T23:56:22.046Z,8.87
2023-04-17T23:58:49.862Z,8.43
